createdAt,value
2018-02-19T00:00:30.714Z,25.70
2018-02-19T00:01:33.183Z,27.67
2018-02-19T00:02:35.669Z,25.23
2018-02-19T00:03:38.161Z,27.17
2018-02-19T00:04:40.673Z,25.90
2018-02-19T00:05:43.172Z,28.70
2018-02-19T00:06:45.640Z,25.33
2018-02-19T00:07:48.123Z,26.30
2018-02-19T00:08:50.607Z,23.75
2018-02-19T00:09:53.140Z,26.98
2018-02-19T00:10:55.654Z,26.08
2018-02-19T00:11:58.141Z,26.90
2018-02-19T00:13:00.616Z,25.98
2018-02-19T00:14:03.108Z,24.58
2018-02-19T00:15:05.609Z,27.48
2018-02-19T00:16:08.110Z,28.25
2018-02-19T00:17:10.584Z,27.10
2018-02-19T00:18:13.059Z,26.60
2018-02-19T00:19:15.567Z,26.33
2018-02-19T00:20:18.043Z,26.27
2018-02-19T00:21:20.557Z,26.05
2018-02-19T00:22:23.049Z,26.35
2018-02-19T00:23:25.522Z,23.55
2018-02-19T00:24:28.020Z,27.20
2018-02-19T00:25:30.545Z,28.62
2018-02-19T00:26:33.007Z,25.50
2018-02-19T00:27:35.508Z,28.12
2018-02-19T00:28:37.991Z,25.70
2018-02-19T00:29:40.478Z,24.35
2018-02-19T00:30:42.976Z,26.55
2018-02-19T00:31:45.488Z,27.27
2018-02-19T00:32:47.976Z,28.75
2018-02-19T00:33:50.465Z,27.92
2018-02-19T00:34:52.957Z,27.77
2018-02-19T00:35:55.437Z,27.65
2018-02-19T00:36:58.008Z,27.30
2018-02-19T00:38:00.486Z,24.63
2018-02-19T00:39:02.970Z,26.50
2018-02-19T00:40:05.477Z,24.63
2018-02-19T00:41:07.963Z,26.40
2018-02-19T00:42:10.487Z,26.70
2018-02-19T00:43:12.971Z,26.77
2018-02-19T00:44:15.443Z,27.77
2018-02-19T00:45:17.916Z,25.12
2018-02-19T00:46:20.415Z,26.55
2018-02-19T00:47:22.916Z,27.42
2018-02-19T00:48:25.411Z,26.75
2018-02-19T00:49:27.913Z,26.52
2018-02-19T00:50:30.400Z,28.02
2018-02-19T00:51:32.926Z,28.05
2018-02-19T00:52:35.452Z,27.13
2018-02-19T00:53:37.954Z,27.55
2018-02-19T00:54:40.432Z,27.80
2018-02-19T00:55:42.912Z,26.65
2018-02-19T00:56:45.387Z,26.20
2018-02-19T00:57:47.888Z,27.02
2018-02-19T00:58:50.364Z,27.13
2018-02-19T00:59:52.866Z,28.25
2018-02-19T01:00:55.360Z,26.12
2018-02-19T01:01:57.840Z,26.55
2018-02-19T01:03:00.347Z,27.35
2018-02-19T01:04:02.815Z,26.37
2018-02-19T01:05:05.302Z,27.95
2018-02-19T01:06:07.783Z,28.25
2018-02-19T01:07:10.267Z,27.52
2018-02-19T01:08:12.755Z,28.50
2018-02-19T01:09:15.239Z,27.05
2018-02-19T01:10:17.725Z,28.60
2018-02-19T01:11:20.201Z,28.75
2018-02-19T01:12:22.689Z,29.27
2018-02-19T01:13:25.210Z,28.33
2018-02-19T01:14:28.502Z,28.58
2018-02-19T01:15:30.989Z,28.70
2018-02-19T01:16:33.550Z,27.80
2018-02-19T01:17:36.051Z,28.95
2018-02-19T01:18:38.570Z,27.15
2018-02-19T01:19:41.046Z,31.15
2018-02-19T01:20:43.527Z,27.15
2018-02-19T01:21:46.032Z,29.83
2018-02-19T01:22:48.512Z,27.60
2018-02-19T01:23:51.025Z,29.10
2018-02-19T01:24:53.525Z,30.70
2018-02-19T01:25:56.023Z,30.42
2018-02-19T01:26:58.501Z,31.12
2018-02-19T01:28:00.990Z,31.05
2018-02-19T01:29:03.506Z,29.95
2018-02-19T01:30:06.032Z,30.37
2018-02-19T01:31:08.523Z,28.40
2018-02-19T01:32:11.025Z,31.27
2018-02-19T01:33:13.516Z,29.83
2018-02-19T01:34:16.028Z,30.52
2018-02-19T01:35:18.503Z,30.42
2018-02-19T01:36:21.000Z,29.58
2018-02-19T01:37:23.485Z,29.85
2018-02-19T01:38:25.977Z,31.45
2018-02-19T01:39:28.485Z,31.42
2018-02-19T01:40:30.974Z,29.63
2018-02-19T01:41:33.473Z,32.03
2018-02-19T01:42:35.963Z,30.70
2018-02-19T01:43:38.446Z,34.72
2018-02-19T01:44:40.950Z,29.92
2018-02-19T01:45:43.427Z,30.17
2018-02-19T01:46:45.907Z,30.95
2018-02-19T01:47:48.400Z,31.70
2018-02-19T01:48:50.898Z,30.23
2018-02-19T01:50:05.130Z,33.65
2018-02-19T01:51:07.620Z,30.95
2018-02-19T01:52:10.119Z,30.10
2018-02-19T01:53:12.613Z,31.80
2018-02-19T01:54:15.090Z,30.45
2018-02-19T01:55:17.610Z,30.70
2018-02-19T01:56:20.119Z,30.15
2018-02-19T01:57:22.615Z,30.00
2018-02-19T01:58:25.116Z,33.70
2018-02-19T01:59:27.631Z,30.65
2018-02-19T02:00:30.136Z,30.90
2018-02-19T02:01:32.640Z,30.37
2018-02-19T02:02:35.133Z,30.60
2018-02-19T02:03:37.625Z,30.50
2018-02-19T02:04:40.118Z,31.45
2018-02-19T02:05:42.624Z,32.30
2018-02-19T02:06:45.118Z,30.77
2018-02-19T02:07:47.596Z,32.75
2018-02-19T02:08:50.079Z,31.50
2018-02-19T02:09:52.565Z,32.03
2018-02-19T02:10:55.081Z,30.88
2018-02-19T02:11:57.552Z,30.98
2018-02-19T02:13:00.045Z,30.80
2018-02-19T02:14:02.539Z,28.90
2018-02-19T02:15:05.046Z,32.60
2018-02-19T02:16:07.546Z,32.30
2018-02-19T02:17:10.047Z,30.65
2018-02-19T02:18:12.542Z,31.12
2018-02-19T02:19:15.032Z,32.90
2018-02-19T02:20:17.525Z,30.40
2018-02-19T02:21:20.027Z,30.48
2018-02-19T02:22:22.504Z,30.58
2018-02-19T02:23:25.024Z,31.90
2018-02-19T02:24:27.529Z,30.70
2018-02-19T02:25:30.026Z,29.75
2018-02-19T02:26:32.543Z,30.73
2018-02-19T02:27:35.021Z,29.63
2018-02-19T02:28:37.517Z,30.67
2018-02-19T02:29:40.011Z,30.00
2018-02-19T02:30:42.502Z,30.02
2018-02-19T02:31:45.013Z,29.65
2018-02-19T02:32:47.499Z,30.77
2018-02-19T02:33:49.980Z,29.95
2018-02-19T02:34:52.460Z,29.90
2018-02-19T02:35:54.954Z,30.05
2018-02-19T02:36:58.077Z,29.12
2018-02-19T02:38:00.581Z,28.90
2018-02-19T02:39:03.065Z,31.10
2018-02-19T02:40:05.619Z,30.80
2018-02-19T02:41:08.133Z,28.17
2018-02-19T02:42:10.635Z,29.87
2018-02-19T02:43:13.115Z,30.10
2018-02-19T02:44:15.604Z,28.60
2018-02-19T02:45:18.102Z,29.35
2018-02-19T02:46:20.580Z,30.25
2018-02-19T02:47:23.077Z,32.20
2018-02-19T02:48:25.578Z,29.48
2018-02-19T02:49:28.064Z,29.58
2018-02-19T02:50:30.556Z,31.75
2018-02-19T02:51:33.047Z,28.40
2018-02-19T02:52:35.562Z,29.35
2018-02-19T02:53:38.042Z,32.25
2018-02-19T02:54:40.555Z,30.48
2018-02-19T02:55:43.040Z,30.98
2018-02-19T02:56:45.513Z,29.52
2018-02-19T02:57:48.046Z,30.55
2018-02-19T02:58:50.543Z,28.73
2018-02-19T02:59:53.030Z,31.30
2018-02-19T03:00:55.506Z,31.00
2018-02-19T03:01:57.989Z,28.75
2018-02-19T03:03:00.514Z,28.67
2018-02-19T03:04:02.998Z,30.23
2018-02-19T03:05:05.497Z,30.70
2018-02-19T03:06:07.984Z,29.35
2018-02-19T03:07:10.484Z,30.60
2018-02-19T03:08:13.012Z,31.85
2018-02-19T03:09:15.483Z,29.27
2018-02-19T03:10:17.980Z,29.58
2018-02-19T03:11:20.473Z,30.80
2018-02-19T03:12:22.962Z,30.20
2018-02-19T03:13:25.485Z,28.52
2018-02-19T03:14:27.959Z,30.15
2018-02-19T03:15:30.465Z,27.80
2018-02-19T03:16:32.943Z,30.92
2018-02-19T03:17:35.432Z,30.17
2018-02-19T03:18:37.957Z,29.25
2018-02-19T03:19:40.516Z,29.98
2018-02-19T03:20:43.035Z,29.58
2018-02-19T03:21:45.511Z,26.77
2018-02-19T03:22:48.035Z,28.33
2018-02-19T03:23:50.556Z,27.40
2018-02-19T03:24:53.049Z,30.45
2018-02-19T03:25:55.539Z,28.65
2018-02-19T03:26:58.045Z,29.42
2018-02-19T03:28:00.571Z,30.45
2018-02-19T03:29:03.075Z,29.02
2018-02-19T03:30:05.578Z,28.62
2018-02-19T03:31:08.076Z,30.92
2018-02-19T03:32:10.571Z,26.62
2018-02-19T03:33:13.063Z,26.80
2018-02-19T03:34:15.577Z,27.85
2018-02-19T03:35:18.078Z,29.95
2018-02-19T03:36:20.573Z,27.17
2018-02-19T03:37:23.058Z,29.58
2018-02-19T03:38:25.594Z,26.08
2018-02-19T03:39:28.087Z,25.65
2018-02-19T03:40:30.572Z,26.83
2018-02-19T03:41:33.057Z,27.55
2018-02-19T03:42:35.563Z,27.92
2018-02-19T03:43:38.053Z,28.62
2018-02-19T03:44:40.590Z,27.90
2018-02-19T03:45:43.072Z,28.83
2018-02-19T03:46:45.570Z,26.67
2018-02-19T03:47:48.061Z,28.08
2018-02-19T03:48:50.539Z,27.62
2018-02-19T03:49:53.072Z,28.48
2018-02-19T03:50:55.559Z,26.37
2018-02-19T03:51:58.056Z,29.00
2018-02-19T03:53:00.543Z,27.80
2018-02-19T03:54:03.018Z,28.00
2018-02-19T03:55:05.515Z,26.58
2018-02-19T03:56:08.034Z,26.10
2018-02-19T03:57:10.539Z,28.98
2018-02-19T03:58:13.043Z,27.87
2018-02-19T03:59:15.525Z,26.70
2018-02-19T04:00:18.051Z,27.15
2018-02-19T04:01:20.540Z,27.42
2018-02-19T04:02:23.030Z,26.37
2018-02-19T04:03:25.519Z,26.23
2018-02-19T04:04:28.027Z,25.27
2018-02-19T04:05:30.523Z,27.17
2018-02-19T04:06:33.025Z,26.92
2018-02-19T04:07:35.585Z,26.52
2018-02-19T04:08:38.090Z,27.30
2018-02-19T04:09:40.586Z,25.95
2018-02-19T04:10:43.096Z,28.62
2018-02-19T04:11:45.591Z,26.90
2018-02-19T04:12:48.067Z,25.92
2018-02-19T04:13:50.540Z,25.05
2018-02-19T04:14:53.021Z,26.02
2018-02-19T04:15:55.518Z,26.23
2018-02-19T04:16:57.999Z,28.60
2018-02-19T04:18:00.485Z,26.62
2018-02-19T04:19:02.980Z,28.67
2018-02-19T04:20:05.478Z,27.20
2018-02-19T04:21:08.001Z,27.70
2018-02-19T04:22:10.497Z,27.05
2018-02-19T04:23:12.998Z,27.75
2018-02-19T04:24:15.471Z,26.65
2018-02-19T04:25:17.993Z,27.40
2018-02-19T04:26:20.505Z,25.52
2018-02-19T04:27:22.991Z,26.60
2018-02-19T04:28:25.472Z,28.27
2018-02-19T04:29:27.943Z,27.90
2018-02-19T04:30:30.446Z,27.80
2018-02-19T04:31:32.979Z,26.80
2018-02-19T04:32:35.466Z,26.33
2018-02-19T04:33:37.931Z,27.33
2018-02-19T04:34:40.420Z,27.35
2018-02-19T04:35:42.935Z,26.90
2018-02-19T04:36:45.480Z,26.70
2018-02-19T04:37:47.970Z,25.85
2018-02-19T04:38:50.492Z,26.37
2018-02-19T04:39:52.967Z,26.08
2018-02-19T04:40:55.442Z,26.37
2018-02-19T04:41:57.968Z,26.33
2018-02-19T04:43:02.831Z,26.42
2018-02-19T04:44:05.307Z,27.25
2018-02-19T04:45:10.078Z,26.40
2018-02-19T04:46:13.489Z,26.87
2018-02-19T04:47:15.993Z,27.80
2018-02-19T04:48:18.494Z,26.75
2018-02-19T04:49:20.992Z,27.08
2018-02-19T04:50:23.480Z,26.27
2018-02-19T04:51:25.955Z,25.80
2018-02-19T04:52:28.474Z,24.85
2018-02-19T04:53:30.979Z,25.70
2018-02-19T04:54:33.466Z,25.17
2018-02-19T04:55:35.966Z,26.33
2018-02-19T04:56:38.477Z,26.00
2018-02-19T04:57:40.981Z,23.98
2018-02-19T04:58:43.485Z,25.25
2018-02-19T04:59:45.973Z,28.02
2018-02-19T05:00:48.448Z,26.08
2018-02-19T05:01:50.916Z,24.37
2018-02-19T05:02:53.421Z,24.95
2018-02-19T05:03:55.909Z,24.90
2018-02-19T05:04:58.414Z,24.10
2018-02-19T05:06:00.901Z,28.40
2018-02-19T05:07:03.397Z,24.33
2018-02-19T05:08:05.904Z,25.73
2018-02-19T05:09:08.408Z,25.52
2018-02-19T05:10:10.914Z,25.25
2018-02-19T05:11:13.402Z,23.10
2018-02-19T05:12:15.885Z,23.67
2018-02-19T05:13:18.387Z,24.45
2018-02-19T05:14:20.867Z,25.75
2018-02-19T05:15:23.348Z,23.33
2018-02-19T05:16:25.835Z,25.42
2018-02-19T05:17:28.325Z,24.50
2018-02-19T05:18:30.830Z,23.02
2018-02-19T05:19:33.307Z,23.05
2018-02-19T05:20:35.798Z,22.85
2018-02-19T05:21:38.290Z,23.83
2018-02-19T05:22:40.769Z,24.25
2018-02-19T05:23:43.282Z,23.30
2018-02-19T05:24:45.769Z,22.58
2018-02-19T05:25:48.363Z,23.10
2018-02-19T05:26:50.833Z,20.02
2018-02-19T05:27:53.345Z,23.48
2018-02-19T05:28:55.864Z,22.33
2018-02-19T05:29:58.360Z,22.37
2018-02-19T05:31:00.830Z,23.48
2018-02-19T05:32:03.337Z,23.52
2018-02-19T05:33:05.821Z,22.58
2018-02-19T05:34:08.342Z,21.85
2018-02-19T05:35:10.853Z,22.87
2018-02-19T05:36:13.354Z,22.80
2018-02-19T05:37:15.850Z,24.73
2018-02-19T05:38:18.324Z,23.73
2018-02-19T05:39:20.847Z,22.15
2018-02-19T05:40:23.349Z,22.42
2018-02-19T05:41:25.841Z,23.30
2018-02-19T05:42:28.329Z,21.55
2018-02-19T05:43:30.862Z,21.75
2018-02-19T05:44:33.364Z,19.85
2018-02-19T05:45:35.839Z,23.58
2018-02-19T05:46:38.327Z,22.30
2018-02-19T05:47:40.832Z,22.65
2018-02-19T05:48:43.322Z,21.48
2018-02-19T05:49:45.832Z,20.17
2018-02-19T05:50:48.334Z,22.15
2018-02-19T05:51:50.835Z,23.62
2018-02-19T05:52:53.315Z,22.23
2018-02-19T05:53:55.850Z,22.23
2018-02-19T05:54:58.362Z,24.23
2018-02-19T05:56:00.854Z,22.00
2018-02-19T05:57:03.332Z,22.52
2018-02-19T05:58:05.812Z,22.42
2018-02-19T05:59:08.307Z,22.13
2018-02-19T06:00:10.817Z,22.65
2018-02-19T06:01:13.295Z,24.60
2018-02-19T06:02:15.802Z,22.25
2018-02-19T06:03:18.311Z,21.85
2018-02-19T06:04:20.828Z,23.15
2018-02-19T06:05:23.355Z,24.17
2018-02-19T06:06:25.851Z,22.23
2018-02-19T06:07:28.337Z,24.02
2018-02-19T06:08:30.820Z,21.62
2018-02-19T06:09:33.308Z,22.95
2018-02-19T06:10:35.816Z,23.65
2018-02-19T06:11:38.301Z,22.65
2018-02-19T06:12:40.823Z,23.58
2018-02-19T06:13:43.314Z,23.05
2018-02-19T06:14:45.787Z,23.05
2018-02-19T06:15:48.314Z,24.55
2018-02-19T06:16:50.856Z,22.55
2018-02-19T06:17:53.348Z,22.87
2018-02-19T06:18:55.831Z,22.73
2018-02-19T06:19:58.303Z,23.15
2018-02-19T06:21:00.804Z,23.90
2018-02-19T06:22:03.287Z,21.90
2018-02-19T06:23:05.765Z,25.02
2018-02-19T06:24:08.260Z,24.92
2018-02-19T06:25:10.749Z,21.55
2018-02-19T06:26:13.284Z,23.50
2018-02-19T06:27:15.778Z,21.83
2018-02-19T06:28:18.244Z,22.35
2018-02-19T06:29:20.759Z,24.75
2018-02-19T06:30:23.252Z,24.75
2018-02-19T06:31:25.752Z,24.17
2018-02-19T06:32:28.245Z,25.17
2018-02-19T06:33:30.739Z,22.90
2018-02-19T06:34:33.219Z,23.55
2018-02-19T06:35:35.721Z,22.48
2018-02-19T06:36:38.223Z,23.08
2018-02-19T06:37:40.717Z,23.77
2018-02-19T06:38:43.205Z,24.85
2018-02-19T06:39:45.709Z,22.80
2018-02-19T06:40:48.222Z,22.17
2018-02-19T06:41:50.728Z,23.10
2018-02-19T06:42:53.292Z,23.42
2018-02-19T06:43:55.777Z,23.65
2018-02-19T06:44:58.396Z,23.42
2018-02-19T06:46:00.892Z,21.25
2018-02-19T06:47:03.385Z,23.33
2018-02-19T06:48:05.945Z,24.45
2018-02-19T06:49:08.547Z,22.87
2018-02-19T06:50:11.023Z,22.90
2018-02-19T06:51:13.565Z,21.10
2018-02-19T06:52:16.089Z,21.60
2018-02-19T06:53:18.571Z,21.95
2018-02-19T06:54:21.115Z,22.83
2018-02-19T06:55:23.582Z,24.83
2018-02-19T06:56:26.078Z,22.37
2018-02-19T06:57:28.603Z,23.27
2018-02-19T06:58:31.098Z,23.15
2018-02-19T06:59:33.616Z,21.62
2018-02-19T07:00:36.110Z,23.02
2018-02-19T07:01:38.613Z,23.90
2018-02-19T07:02:41.182Z,23.42
2018-02-19T07:03:43.663Z,23.17
2018-02-19T07:04:46.156Z,23.85
2018-02-19T07:05:48.631Z,24.20
2018-02-19T07:06:51.103Z,23.48
2018-02-19T07:07:53.600Z,22.85
2018-02-19T07:08:56.154Z,23.83
2018-02-19T07:09:58.631Z,23.10
2018-02-19T07:11:01.133Z,22.17
2018-02-19T07:12:03.628Z,23.17
2018-02-19T07:13:06.155Z,24.55
2018-02-19T07:14:08.724Z,23.67
2018-02-19T07:15:11.234Z,22.85
2018-02-19T07:16:13.712Z,22.87
2018-02-19T07:17:16.205Z,21.92
2018-02-19T07:18:18.698Z,22.50
2018-02-19T07:19:21.176Z,24.30
2018-02-19T07:20:23.662Z,22.50
2018-02-19T07:21:26.156Z,21.70
2018-02-19T07:22:28.641Z,22.50
2018-02-19T07:23:31.130Z,22.25
2018-02-19T07:24:33.605Z,23.25
2018-02-19T07:25:36.082Z,21.08
2018-02-19T07:26:38.573Z,23.80
2018-02-19T07:27:41.077Z,23.00
2018-02-19T07:28:43.563Z,24.37
2018-02-19T07:29:46.057Z,23.55
2018-02-19T07:30:48.595Z,23.45
2018-02-19T07:31:51.079Z,22.90
2018-02-19T07:32:53.573Z,23.25
2018-02-19T07:33:56.078Z,23.20
2018-02-19T07:34:58.569Z,21.08
2018-02-19T07:36:01.040Z,23.25
2018-02-19T07:37:03.516Z,22.55
2018-02-19T07:38:06.006Z,22.10
2018-02-19T07:39:08.501Z,21.73
2018-02-19T07:40:10.986Z,22.77
2018-02-19T07:41:13.623Z,23.52
2018-02-19T07:42:16.149Z,22.92
2018-02-19T07:43:18.630Z,23.77
2018-02-19T07:44:21.145Z,22.20
2018-02-19T07:45:23.617Z,22.08
2018-02-19T07:46:26.106Z,22.80
2018-02-19T07:47:28.590Z,23.02
2018-02-19T07:48:31.059Z,24.02
2018-02-19T07:49:33.549Z,22.60
2018-02-19T07:50:36.038Z,23.17
2018-02-19T07:51:38.545Z,23.75
2018-02-19T07:52:41.037Z,23.50
2018-02-19T07:53:43.558Z,23.38
2018-02-19T07:54:46.047Z,21.98
2018-02-19T07:55:48.530Z,22.23
2018-02-19T07:56:51.010Z,23.12
2018-02-19T07:57:53.487Z,22.33
2018-02-19T07:58:55.951Z,21.73
2018-02-19T07:59:58.434Z,23.30
2018-02-19T08:01:00.923Z,20.95
2018-02-19T08:02:03.395Z,22.42
2018-02-19T08:03:05.864Z,21.50
2018-02-19T08:04:08.350Z,18.85
2018-02-19T08:05:10.840Z,22.73
2018-02-19T08:06:13.315Z,20.98
2018-02-19T08:07:15.802Z,24.45
2018-02-19T08:08:18.297Z,22.50
2018-02-19T08:09:20.769Z,22.42
2018-02-19T08:10:23.252Z,19.87
2018-02-19T08:11:25.809Z,22.58
2018-02-19T08:12:28.371Z,20.75
2018-02-19T08:13:30.804Z,23.02
2018-02-19T08:14:33.289Z,23.05
2018-02-19T08:15:35.774Z,23.33
2018-02-19T08:16:38.270Z,22.50
2018-02-19T08:17:40.741Z,22.85
2018-02-19T08:18:43.237Z,22.65
2018-02-19T08:19:45.726Z,24.05
2018-02-19T08:20:48.217Z,21.95
2018-02-19T08:21:50.679Z,21.60
2018-02-19T08:22:53.163Z,21.90
2018-02-19T08:23:55.687Z,22.60
2018-02-19T08:24:58.127Z,21.60
2018-02-19T08:26:00.617Z,21.60
2018-02-19T08:27:03.117Z,22.33
2018-02-19T08:28:05.601Z,23.12
2018-02-19T08:29:08.075Z,23.35
2018-02-19T08:30:10.555Z,22.42
2018-02-19T08:31:13.073Z,21.95
2018-02-19T08:32:15.586Z,22.55
2018-02-19T08:33:18.063Z,21.80
2018-02-19T08:34:20.555Z,22.08
2018-02-19T08:35:23.027Z,23.17
2018-02-19T08:36:25.518Z,21.83
2018-02-19T08:37:28.009Z,22.30
2018-02-19T08:38:30.492Z,23.38
2018-02-19T08:39:32.963Z,23.35
2018-02-19T08:40:35.435Z,22.42
2018-02-19T08:41:37.937Z,20.90
2018-02-19T08:42:40.421Z,22.48
2018-02-19T08:43:42.921Z,22.15
2018-02-19T08:44:45.392Z,19.58
2018-02-19T08:45:47.890Z,21.00
2018-02-19T08:46:50.371Z,21.75
2018-02-19T08:47:52.840Z,21.90
2018-02-19T08:48:55.325Z,21.98
2018-02-19T08:49:57.810Z,20.77
2018-02-19T08:51:00.303Z,21.90
2018-02-19T08:52:02.782Z,21.30
2018-02-19T08:53:05.270Z,21.25
2018-02-19T08:54:07.876Z,19.95
2018-02-19T08:55:10.365Z,23.20
2018-02-19T08:56:12.851Z,18.27
2018-02-19T08:57:15.315Z,21.23
2018-02-19T08:58:17.797Z,23.65
2018-02-19T08:59:20.288Z,21.37
2018-02-19T09:00:22.765Z,20.42
2018-02-19T09:01:25.264Z,20.58
2018-02-19T09:02:27.754Z,21.17
2018-02-19T09:03:30.231Z,22.27
2018-02-19T09:04:32.723Z,21.45
2018-02-19T09:05:35.207Z,21.23
2018-02-19T09:06:37.711Z,21.80
2018-02-19T09:07:40.180Z,21.02
2018-02-19T09:08:42.661Z,20.90
2018-02-19T09:09:45.139Z,19.75
2018-02-19T09:10:47.630Z,18.95
2018-02-19T09:11:50.132Z,20.17
2018-02-19T09:12:52.626Z,20.83
2018-02-19T09:13:55.096Z,18.52
2018-02-19T09:14:57.589Z,20.00
2018-02-19T09:16:00.070Z,13.80
2018-02-19T09:17:02.599Z,22.00
2018-02-19T09:18:05.078Z,19.75
2018-02-19T09:19:07.577Z,19.30
2018-02-19T09:20:10.048Z,19.77
2018-02-19T09:21:12.515Z,20.65
2018-02-19T09:22:15.053Z,17.67
2018-02-19T09:23:17.535Z,20.42
2018-02-19T09:24:20.012Z,20.98
2018-02-19T09:25:22.479Z,14.48
2018-02-19T09:26:24.960Z,20.62
2018-02-19T09:27:27.482Z,17.30
2018-02-19T09:28:29.955Z,17.27
2018-02-19T09:29:32.445Z,19.08
2018-02-19T09:30:34.988Z,18.73
2018-02-19T09:31:37.470Z,13.15
2018-02-19T09:32:39.998Z,18.85
2018-02-19T09:33:42.478Z,16.80
2018-02-19T09:34:44.945Z,19.67
2018-02-19T09:35:47.419Z,18.85
2018-02-19T09:36:50.033Z,18.85
2018-02-19T09:37:52.557Z,19.92
2018-02-19T09:38:55.028Z,18.02
2018-02-19T09:39:57.495Z,19.50
2018-02-19T09:40:59.977Z,18.10
2018-02-19T09:42:02.462Z,19.10
2018-02-19T09:43:04.949Z,20.65
2018-02-19T09:44:07.428Z,16.70
2018-02-19T09:45:09.896Z,19.50
2018-02-19T09:46:12.374Z,20.60
2018-02-19T09:47:14.843Z,20.77
2018-02-19T09:48:17.347Z,18.62
2018-02-19T09:49:19.837Z,19.77
2018-02-19T09:50:22.307Z,19.02
2018-02-19T09:51:24.780Z,21.58
2018-02-19T09:52:27.334Z,19.58
2018-02-19T09:53:29.846Z,21.20
2018-02-19T09:54:32.318Z,21.77
2018-02-19T09:55:34.791Z,19.15
2018-02-19T09:56:37.385Z,20.60
2018-02-19T09:57:39.893Z,19.55
2018-02-19T09:58:42.451Z,19.90
2018-02-19T09:59:44.934Z,17.80
2018-02-19T10:00:47.427Z,20.83
2018-02-19T10:01:49.895Z,20.10
2018-02-19T10:02:52.362Z,19.75
2018-02-19T10:03:54.873Z,20.42
2018-02-19T10:04:57.343Z,19.30
2018-02-19T10:05:59.816Z,19.65
2018-02-19T10:07:02.283Z,18.83
2018-02-19T10:08:04.756Z,18.62
2018-02-19T10:09:07.283Z,19.05
2018-02-19T10:10:09.772Z,18.73
2018-02-19T10:11:12.360Z,18.75
2018-02-19T10:12:14.845Z,20.37
2018-02-19T10:13:17.332Z,18.98
2018-02-19T10:14:19.938Z,17.65
2018-02-19T10:15:22.782Z,15.32
2018-02-19T10:16:25.261Z,20.02
2018-02-19T10:17:27.763Z,19.50
2018-02-19T10:18:30.245Z,18.90
2018-02-19T10:19:32.750Z,18.80
2018-02-19T10:20:35.230Z,17.12
2018-02-19T10:21:37.742Z,19.95
2018-02-19T10:22:40.211Z,19.15
2018-02-19T10:23:42.701Z,15.65
2018-02-19T10:24:45.204Z,19.00
2018-02-19T10:25:47.671Z,18.50
2018-02-19T10:26:50.150Z,19.52
2018-02-19T10:27:52.642Z,18.17
2018-02-19T10:28:55.138Z,18.45
2018-02-19T10:29:57.639Z,20.15
2018-02-19T10:31:00.129Z,20.73
2018-02-19T10:32:02.599Z,19.20
2018-02-19T10:33:05.085Z,18.40
2018-02-19T10:34:07.627Z,17.77
2018-02-19T10:35:10.133Z,20.10
2018-02-19T10:36:12.604Z,18.40
2018-02-19T10:37:15.083Z,19.23
2018-02-19T10:38:17.566Z,17.80
2018-02-19T10:39:20.036Z,19.05
2018-02-19T10:40:22.539Z,20.20
2018-02-19T10:41:25.011Z,19.12
2018-02-19T10:42:27.519Z,18.58
2018-02-19T10:43:29.988Z,20.95
2018-02-19T10:44:32.483Z,20.02
2018-02-19T10:45:34.980Z,20.17
2018-02-19T10:46:37.569Z,19.42
2018-02-19T10:47:40.043Z,20.08
2018-02-19T10:48:42.538Z,18.55
2018-02-19T10:49:45.034Z,18.92
2018-02-19T10:50:47.542Z,18.73
2018-02-19T10:51:50.034Z,19.75
2018-02-19T10:52:52.527Z,19.70
2018-02-19T10:53:55.025Z,19.35
2018-02-19T10:54:57.553Z,19.58
2018-02-19T10:56:00.790Z,19.50
2018-02-19T10:57:03.280Z,14.60
2018-02-19T10:58:05.770Z,17.77
2018-02-19T10:59:08.242Z,19.00
2018-02-19T11:00:10.716Z,17.02
2018-02-19T11:01:13.219Z,18.10
2018-02-19T11:02:15.707Z,19.20
2018-02-19T11:03:18.185Z,17.95
2018-02-19T11:04:20.686Z,18.90
2018-02-19T11:05:23.169Z,18.10
2018-02-19T11:06:25.674Z,18.50
2018-02-19T11:07:28.174Z,20.20
2018-02-19T11:08:30.635Z,19.15
2018-02-19T11:09:33.915Z,19.98
2018-02-19T11:10:36.387Z,18.30
2018-02-19T11:11:38.894Z,19.40
2018-02-19T11:12:41.374Z,19.37
2018-02-19T11:13:43.865Z,19.33
2018-02-19T11:14:46.336Z,20.50
2018-02-19T11:15:48.864Z,19.95
2018-02-19T11:16:51.373Z,20.60
2018-02-19T11:17:53.858Z,21.20
2018-02-19T11:18:56.361Z,20.35
2018-02-19T11:19:58.840Z,20.42
2018-02-19T11:21:01.317Z,20.40
2018-02-19T11:22:03.812Z,18.50
2018-02-19T11:23:06.290Z,19.98
2018-02-19T11:24:08.802Z,19.67
2018-02-19T11:25:11.259Z,17.83
2018-02-19T11:26:13.737Z,19.83
2018-02-19T11:27:16.249Z,19.62
2018-02-19T11:28:18.721Z,19.77
2018-02-19T11:29:21.191Z,20.08
2018-02-19T11:30:23.664Z,20.98
2018-02-19T11:31:26.139Z,21.15
2018-02-19T11:32:28.639Z,19.10
2018-02-19T11:33:31.106Z,18.75
2018-02-19T11:34:33.576Z,19.73
2018-02-19T11:35:36.086Z,20.52
2018-02-19T11:36:38.573Z,20.08
2018-02-19T11:37:41.059Z,25.27
2018-02-19T11:38:43.554Z,22.33
2018-02-19T11:39:46.121Z,23.12
2018-02-19T11:40:48.606Z,20.25
2018-02-19T11:41:51.091Z,20.23
2018-02-19T11:42:53.591Z,21.27
2018-02-19T11:43:56.078Z,22.50
2018-02-19T11:44:58.565Z,20.33
2018-02-19T11:46:01.038Z,20.20
2018-02-19T11:47:03.530Z,18.55
2018-02-19T11:48:06.043Z,20.62
2018-02-19T11:49:08.534Z,18.12
2018-02-19T11:50:11.028Z,19.00
2018-02-19T11:51:13.496Z,18.52
2018-02-19T11:52:15.967Z,19.17
2018-02-19T11:53:18.467Z,19.98
2018-02-19T11:54:20.940Z,20.08
2018-02-19T11:55:23.415Z,20.90
2018-02-19T11:56:25.891Z,19.48
2018-02-19T11:57:28.371Z,17.80
2018-02-19T11:58:30.874Z,19.33
2018-02-19T11:59:33.347Z,21.30
2018-02-19T12:00:35.815Z,20.30
2018-02-19T12:01:38.287Z,20.90
2018-02-19T12:02:40.761Z,19.02
2018-02-19T12:03:43.265Z,18.27
2018-02-19T12:04:45.732Z,20.90
2018-02-19T12:05:48.208Z,18.40
2018-02-19T12:06:50.694Z,19.48
2018-02-19T12:07:53.159Z,19.15
2018-02-19T12:08:55.648Z,19.80
2018-02-19T12:09:58.123Z,20.55
2018-02-19T12:11:00.611Z,19.42
2018-02-19T12:12:03.094Z,19.48
2018-02-19T12:13:05.582Z,18.30
2018-02-19T12:14:08.152Z,21.25
2018-02-19T12:15:10.825Z,19.80
2018-02-19T12:16:13.323Z,18.75
2018-02-19T12:17:15.800Z,17.55
2018-02-19T12:18:18.324Z,19.50
2018-02-19T12:19:20.828Z,19.70
2018-02-19T12:20:23.300Z,19.52
2018-02-19T12:21:25.819Z,21.17
2018-02-19T12:22:28.292Z,18.00
2018-02-19T12:23:30.777Z,20.02
2018-02-19T12:24:33.283Z,18.10
2018-02-19T12:25:35.755Z,19.15
2018-02-19T12:26:38.223Z,18.83
2018-02-19T12:27:40.687Z,19.80
2018-02-19T12:28:43.177Z,18.48
2018-02-19T12:29:45.784Z,20.12
2018-02-19T12:30:48.369Z,19.48
2018-02-19T12:31:50.844Z,18.92
2018-02-19T12:32:53.332Z,17.50
2018-02-19T12:33:55.823Z,18.87
2018-02-19T12:34:58.341Z,19.58
2018-02-19T12:36:00.826Z,18.30
2018-02-19T12:37:03.307Z,19.40
2018-02-19T12:38:05.791Z,19.33
2018-02-19T12:39:08.527Z,18.80
2018-02-19T12:40:11.049Z,19.62
2018-02-19T12:41:13.546Z,20.23
2018-02-19T12:42:16.024Z,19.20
2018-02-19T12:43:18.498Z,19.48
2018-02-19T12:44:20.968Z,20.42
2018-02-19T12:45:23.525Z,18.85
2018-02-19T12:46:26.013Z,21.20
2018-02-19T12:47:28.499Z,21.00
2018-02-19T12:48:30.971Z,20.80
2018-02-19T12:49:33.470Z,21.35
2018-02-19T12:50:35.967Z,20.42
2018-02-19T12:51:38.458Z,19.80
2018-02-19T12:52:40.943Z,20.20
2018-02-19T12:53:43.420Z,21.27
2018-02-19T12:54:45.911Z,20.95
2018-02-19T12:55:48.412Z,19.55
2018-02-19T12:56:50.927Z,20.45
2018-02-19T12:57:53.419Z,20.48
2018-02-19T12:58:55.915Z,20.73
2018-02-19T12:59:58.426Z,21.52
2018-02-19T13:01:00.943Z,19.92
2018-02-19T13:02:03.424Z,20.17
2018-02-19T13:03:05.906Z,21.48
2018-02-19T13:04:08.397Z,21.60
2018-02-19T13:05:10.880Z,23.23
2018-02-19T13:06:13.385Z,21.85
2018-02-19T13:07:15.869Z,22.58
2018-02-19T13:08:18.343Z,19.92
2018-02-19T13:09:20.826Z,21.08
2018-02-19T13:10:23.307Z,20.00
2018-02-19T13:11:25.807Z,20.73
2018-02-19T13:12:28.293Z,20.17
2018-02-19T13:13:30.794Z,21.77
2018-02-19T13:14:33.290Z,19.87
2018-02-19T13:15:35.782Z,20.58
2018-02-19T13:16:38.296Z,20.67
2018-02-19T13:17:40.775Z,18.90
2018-02-19T13:18:43.271Z,21.37
2018-02-19T13:19:45.761Z,20.88
2018-02-19T13:20:48.255Z,20.35
2018-02-19T13:21:50.826Z,20.73
2018-02-19T13:22:53.298Z,19.77
2018-02-19T13:23:55.778Z,20.30
2018-02-19T13:24:58.267Z,20.65